Time;durP1;ratioP1;P1;durP2;ratioP2;P2;SDS_P1;SDS_P2;PMS_P1;PMS_P2;Temp;Humidity;BMP_temperature;BMP_pressure;BME280_temperature;BME280_humidity;BME280_pressure;Samples;Min_cycle;Max_cycle;Signal;HPM_P1;HPM_P2
2022/05/11 00:01:29;;;;;;;8.88;2.85;;;;;;;14.01;nan;101203.25;5014459;28;20460;-49
2022/05/11 00:03:56;;;;;;;4.28;2.28;;;;;;;13.99;nan;101205.13;5014569;28;20035;-47
2022/05/11 00:06:21;;;;;;;9.68;2.85;;;;;;;13.90;nan;101176.38;5031945;28;20037;-49
2022/05/11 00:08:47;;;;;;;9.82;2.47;;;;;;;13.61;nan;101131.72;5014206;28;20116;-50
2022/05/11 00:11:12;;;;;;;7.28;3.00;;;;;;;13.94;nan;101193.88;5032187;28;20116;-51
2022/05/11 00:13:38;;;;;;;9.38;2.65;;;;;;;13.82;nan;101161.75;4998128;28;20069;-54
2022/05/11 00:16:03;;;;;;;6.03;2.92;;;;;;;13.93;nan;101194.78;5032144;28;20068;-51
2022/05/11 00:18:29;;;;;;;8.43;3.00;;;;;;;13.55;nan;101131.97;5029627;28;20044;-51
2022/05/11 00:20:55;;;;;;;9.75;2.97;;;;;;;13.53;nan;101131.16;5031967;28;20434;-54
2022/05/11 00:23:20;;;;;;;7.22;2.42;;;;;;;13.56;nan;101131.03;5014037;28;20148;-50
2022/05/11 00:25:45;;;;;;;5.38;2.28;;;;;;;13.85;nan;101186.28;5031994;28;20102;-52
2022/05/11 00:28:11;;;;;;;9.45;2.63;;;;;;;13.79;nan;101180.38;5031802;28;20030;-47
2022/05/11 00:30:36;;;;;;;10.80;3.00;;;;;;;13.78;nan;101187.44;5031896;28;20378;-52
2022/05/11 00:33:02;;;;;;;6.57;2.17;;;;;;;13.34;nan;101104.56;5032292;28;20037;-49
2022/05/11 00:35:30;;;;;;;6.55;2.35;;;;;;;13.68;nan;101151.72;5031749;28;20037;-51
2022/05/11 00:37:56;;;;;;;7.05;2.25;;;;;;;13.78;nan;101170.72;5034705;28;20488;-50
2022/05/11 00:40:22;;;;;;;8.73;2.53;;;;;;;13.51;nan;101123.28;5035689;28;20037;-49
2022/05/11 00:42:48;;;;;;;5.60;2.63;;;;;;;13.54;nan;101117.88;5035856;28;20033;-48
2022/05/11 00:45:13;;;;;;;10.02;2.97;;;;;;;13.87;nan;101171.22;5035724;28;20404;-52
2022/05/11 00:47:45;;;;;;;8.20;2.42;;;;;;;13.87;nan;101167.69;5034376;28;20035;-53
2022/05/11 00:50:32;;;;;;;9.20;2.92;;;;;;;13.90;nan;101172.88;5035487;28;20040;-48
2022/05/11 00:53:09;;;;;;;7.55;2.53;;;;;;;13.88;nan;101164.13;5030275;28;20083;-51
2022/05/11 00:55:47;;;;;;;5.38;2.15;;;;;;;13.87;nan;101157.97;5040832;28;20456;-52
2022/05/11 00:58:37;;;;;;;8.63;3.55;;;;;;;13.53;nan;101102.94;5020743;28;20033;-47
2022/05/11 01:01:03;;;;;;;7.47;2.95;;;;;;;13.83;nan;101143.16;5016738;28;20033;-48
2022/05/11 01:03:53;;;;;;;12.35;2.83;;;;;;;13.89;nan;101148.19;5023685;28;20104;-49
2022/05/11 01:06:19;;;;;;;8.45;3.20;;;;;;;13.86;nan;101147.47;5033364;28;20064;-50
2022/05/11 01:08:45;;;;;;;8.82;2.58;;;;;;;13.52;nan;101087.13;5034290;28;20038;-52
2022/05/11 01:11:10;;;;;;;8.82;3.10;;;;;;;13.50;nan;101087.19;5037947;28;20087;-52
2022/05/11 01:13:38;;;;;;;5.38;2.83;;;;;;;13.81;nan;101126.47;5025720;28;20033;-47
2022/05/11 01:16:04;;;;;;;11.40;2.75;;;;;;;13.80;nan;101119.47;5035005;28;20403;-48
2022/05/11 01:18:30;;;;;;;9.07;2.97;;;;;;;13.53;nan;101073.84;5018171;28;20034;-49
2022/05/11 01:20:55;;;;;;;8.25;3.30;;;;;;;13.82;nan;101127.34;5033407;28;20033;-49
2022/05/11 01:23:33;;;;;;;9.82;2.58;;;;;;;13.82;nan;101133.50;5022454;28;20041;-48
2022/05/11 01:26:02;;;;;;;8.38;2.75;;;;;;;13.73;nan;101102.13;5034055;28;20040;-49
2022/05/11 01:28:28;;;;;;;15.18;3.40;;;;;;;13.44;nan;101062.78;5048339;28;20083;-55
2022/05/11 01:31:03;;;;;;;8.68;2.75;;;;;;;13.37;nan;101048.94;5033852;28;20029;-53
2022/05/11 01:33:29;;;;;;;9.40;2.65;;;;;;;13.76;nan;101115.22;5034321;28;20523;-51
2022/05/11 01:36:14;;;;;;;10.80;3.38;;;;;;;13.03;nan;100989.53;5026941;28;20124;-52
2022/05/11 01:38:41;;;;;;;9.63;2.70;;;;;;;13.87;nan;101128.00;5018166;28;20041;-52
2022/05/11 01:41:08;;;;;;;7.68;2.80;;;;;;;13.52;nan;101060.66;5020329;28;20029;-47
2022/05/11 01:43:36;;;;;;;8.75;2.17;;;;;;;13.58;nan;101073.66;5034130;28;20531;-54
2022/05/11 01:46:02;;;;;;;7.95;2.70;;;;;;;13.86;nan;101113.06;5033876;28;20030;-49
2022/05/11 01:48:27;;;;;;;7.10;2.97;;;;;;;13.89;nan;101118.25;5029805;28;20041;-48
2022/05/11 01:50:54;;;;;;;8.50;2.85;;;;;;;13.90;nan;101130.53;5033738;28;20021;-54
2022/05/11 01:53:19;;;;;;;7.85;2.63;;;;;;;13.83;nan;101102.63;5034110;28;20025;-54
2022/05/11 01:55:45;;;;;;;6.55;2.92;;;;;;;13.91;nan;101129.63;5009149;28;20171;-49
2022/05/11 01:58:11;;;;;;;8.77;2.78;;;;;;;13.86;nan;101110.44;5033725;28;20114;-52
2022/05/11 02:00:38;;;;;;;6.10;2.50;;;;;;;13.65;nan;101075.13;5033828;28;20037;-53
2022/05/11 02:03:04;;;;;;;8.57;3.05;;;;;;;13.68;nan;101079.44;5032697;28;20029;-54
2022/05/11 02:08:13;;;;;;;6.88;2.53;;;;;;;13.94;nan;101122.41;5033910;28;20045;-47
2022/05/11 02:10:39;;;;;;;8.38;2.58;;;;;;;13.89;nan;101102.38;5033690;28;20029;-48
2022/05/11 02:13:05;;;;;;;9.50;2.45;;;;;;;13.62;nan;101063.81;5033611;28;20044;-52
2022/05/11 02:15:30;;;;;;;5.80;2.13;;;;;;;13.88;nan;101111.22;5023033;28;20096;-47
2022/05/11 02:17:55;;;;;;;6.20;1.90;;;;;;;13.88;nan;101112.09;5026253;28;20069;-49
2022/05/11 02:20:22;;;;;;;2.95;2.05;;;;;;;13.92;nan;101123.41;5034373;28;20036;-48
2022/05/11 02:22:47;;;;;;;3.83;1.85;;;;;;;13.89;nan;101121.72;5033527;28;20095;-50
2022/05/11 02:25:15;;;;;;;6.30;1.92;;;;;;;13.88;nan;101109.44;5020380;28;20037;-48
2022/05/11 02:27:41;;;;;;;7.30;2.30;;;;;;;13.87;nan;101096.25;5033234;28;20435;-48
2022/05/11 02:30:10;;;;;;;5.72;1.88;;;;;;;13.92;nan;101108.34;5019269;28;20091;-46
2022/05/11 02:32:35;;;;;;;9.95;2.45;;;;;;;13.84;nan;101104.31;5032377;28;20045;-51
2022/05/11 02:35:12;;;;;;;6.35;2.10;;;;;;;13.88;nan;101113.84;5018654;28;20423;-48
2022/05/11 02:37:48;;;;;;;4.78;2.25;;;;;;;13.40;nan;101026.78;5033070;28;20045;-53
2022/05/11 02:40:20;;;;;;;5.80;2.00;;;;;;;13.85;nan;101113.97;5033022;28;20452;-54
2022/05/11 02:42:45;;;;;;;7.07;2.13;;;;;;;13.49;nan;101051.09;5032943;28;20032;-48
2022/05/11 02:45:12;;;;;;;4.15;1.92;;;;;;;13.72;nan;101089.81;5033013;28;20034;-48
2022/05/11 02:47:38;;;;;;;9.13;2.30;;;;;;;13.78;nan;101110.72;5023616;28;20033;-49
2022/05/11 02:50:05;;;;;;;9.27;2.65;;;;;;;13.44;nan;101055.72;5019913;28;20377;-47
2022/05/11 02:52:31;;;;;;;8.43;2.30;;;;;;;13.73;nan;101103.91;5032628;28;20118;-51
2022/05/11 02:54:57;;;;;;;6.03;1.83;;;;;;;13.74;nan;101111.78;5032962;28;20026;-46
2022/05/11 02:57:22;;;;;;;7.20;1.90;;;;;;;13.75;nan;101112.63;5033041;28;20045;-50
2022/05/11 02:59:49;;;;;;;5.57;1.92;;;;;;;13.74;nan;101114.44;5032415;28;20527;-50
2022/05/11 03:02:15;;;;;;;4.88;1.77;;;;;;;13.74;nan;101114.44;5031513;28;20057;-50
2022/05/11 03:04:40;;;;;;;7.32;1.80;;;;;;;13.40;nan;101048.81;5032750;28;20041;-48
2022/05/11 03:07:05;;;;;;;5.45;1.70;;;;;;;13.72;nan;101104.84;5032482;28;20037;-47
2022/05/11 03:09:31;;;;;;;9.80;2.50;;;;;;;13.72;nan;101110.13;5032681;28;20053;-50
2022/05/11 03:11:56;;;;;;;7.20;2.17;;;;;;;13.37;nan;101045.44;5032338;28;20127;-52
2022/05/11 03:14:22;;;;;;;5.22;2.63;;;;;;;13.75;nan;101108.19;5032607;28;20049;-48
2022/05/11 03:16:47;;;;;;;10.35;2.40;;;;;;;13.65;nan;101085.72;5031435;28;20039;-48
2022/05/11 03:19:13;;;;;;;5.97;2.00;;;;;;;13.75;nan;101088.81;5032330;28;20116;-49
2022/05/11 03:21:38;;;;;;;8.50;2.13;;;;;;;13.67;nan;101075.91;5032559;28;20039;-50
2022/05/11 03:24:04;;;;;;;5.20;2.15;;;;;;;13.41;nan;101033.81;5032205;28;20056;-51
2022/05/11 03:26:29;;;;;;;8.13;1.95;;;;;;;13.68;nan;101082.06;5032245;28;20137;-46
2022/05/11 03:28:54;;;;;;;5.45;1.90;;;;;;;13.74;nan;101090.63;5032195;28;20449;-49
2022/05/11 03:31:20;;;;;;;6.00;1.50;;;;;;;13.73;nan;101094.19;5032525;28;20047;-47
2022/05/11 03:36:30;;;;;;;5.88;1.48;;;;;;;13.38;nan;101026.00;5031415;28;20099;-48
2022/05/11 03:38:55;;;;;;;6.20;1.63;;;;;;;13.71;nan;101089.88;5031902;28;20037;-55
2022/05/11 03:41:21;;;;;;;8.02;2.55;;;;;;;13.68;nan;101090.00;5031814;28;20025;-49
2022/05/11 03:43:46;;;;;;;5.47;2.00;;;;;;;13.69;nan;101089.94;5032206;28;20399;-53
2022/05/11 03:46:12;;;;;;;6.70;2.30;;;;;;;13.26;nan;101014.16;5031923;28;20029;-50
2022/05/11 03:48:37;;;;;;;7.32;1.92;;;;;;;13.67;nan;101083.00;5046954;28;20036;-53
2022/05/11 03:51:04;;;;;;;5.13;1.77;;;;;;;13.67;nan;101083.00;5031831;28;20033;-50
2022/05/11 03:53:30;;;;;;;5.85;1.42;;;;;;;13.67;nan;101085.63;5023610;28;20548;-47
2022/05/11 03:55:55;;;;;;;6.55;1.33;;;;;;;13.62;nan;101066.47;5024493;28;20052;-49
2022/05/11 03:58:21;;;;;;;7.00;1.80;;;;;;;13.67;nan;101075.91;5031522;28;20488;-47
2022/05/11 04:00:46;;;;;;;4.20;1.58;;;;;;;13.66;nan;101074.19;5014140;28;20124;-46
2022/05/11 04:03:11;;;;;;;6.13;1.65;;;;;;;13.67;nan;101070.63;5031751;28;20060;-47
2022/05/11 04:05:37;;;;;;;6.75;1.60;;;;;;;13.66;nan;101062.78;5031740;28;20037;-53
2022/05/11 04:08:02;;;;;;;4.68;1.65;;;;;;;13.43;nan;101032.81;5031802;28;20041;-51
2022/05/11 04:10:28;;;;;;;3.42;1.60;;;;;;;13.65;nan;101068.97;5012161;28;20098;-54
2022/05/11 04:12:53;;;;;;;7.18;1.75;;;;;;;13.68;nan;101063.56;5020540;28;20112;-52
2022/05/11 04:15:18;;;;;;;7.28;2.08;;;;;;;13.30;nan;100999.91;5035903;28;20477;-51
2022/05/11 04:17:45;;;;;;;6.95;1.40;;;;;;;13.66;nan;101062.78;5026923;28;20037;-48
2022/05/11 04:20:16;;;;;;;5.75;1.73;;;;;;;13.64;nan;101064.59;5034476;28;20041;-53
2022/05/11 04:22:41;;;;;;;5.93;1.73;;;;;;;13.69;nan;101067.94;5018376;28;20388;-50
2022/05/11 04:25:09;;;;;;;3.90;1.30;;;;;;;13.72;nan;101083.69;5035418;28;20033;-52
2022/05/11 04:27:34;;;;;;;4.93;1.65;;;;;;;13.74;nan;101082.69;5035781;28;20037;-50
2022/05/11 04:30:01;;;;;;;5.40;1.60;;;;;;;13.43;nan;101016.97;5035621;28;20037;-49
2022/05/11 04:32:27;;;;;;;6.13;1.35;;;;;;;13.74;nan;101068.59;5034346;28;20037;-48
2022/05/11 04:34:52;;;;;;;6.72;1.80;;;;;;;13.73;nan;101073.03;5034336;28;20033;-49
2022/05/11 04:37:18;;;;;;;6.40;1.35;;;;;;;13.74;nan;101066.81;5034993;28;20175;-52
2022/05/11 04:39:43;;;;;;;3.55;1.45;;;;;;;13.74;nan;101076.53;5035345;28;20029;-50
2022/05/11 04:42:10;;;;;;;5.82;1.77;;;;;;;13.46;nan;101019.47;5029958;28;20037;-50
2022/05/11 04:44:35;;;;;;;5.90;2.05;;;;;;;13.76;nan;101086.13;5018013;28;20075;-50
2022/05/11 04:47:09;;;;;;;5.45;1.60;;;;;;;13.70;nan;101053.75;5023175;28;20037;-52
2022/05/11 04:49:34;;;;;;;5.32;1.02;;;;;;;13.45;nan;100996.63;5026409;28;20025;-47
2022/05/11 04:52:02;;;;;;;6.05;1.73;;;;;;;13.76;nan;101056.16;5034770;28;20049;-46
2022/05/11 04:54:27;;;;;;;8.40;1.83;;;;;;;13.78;nan;101065.75;5035255;28;20021;-46
2022/05/11 04:56:53;;;;;;;7.10;1.75;;;;;;;13.45;nan;101016.91;5035184;28;20036;-53
2022/05/11 04:59:18;;;;;;;3.20;1.27;;;;;;;13.77;nan;101073.75;5035051;28;20036;-46
2022/05/11 05:01:45;;;;;;;3.67;1.33;;;;;;;13.75;nan;101070.31;5034807;28;20034;-46
2022/05/11 05:04:10;;;;;;;5.35;1.55;;;;;;;13.37;nan;101005.75;5034926;28;20033;-55
2022/05/11 05:06:36;;;;;;;6.40;1.90;;;;;;;13.77;nan;101077.28;5034512;28;20041;-49
2022/05/11 05:09:03;;;;;;;5.78;1.48;;;;;;;13.83;nan;101071.72;5020262;28;20029;-48
2022/05/11 05:11:28;;;;;;;4.53;1.20;;;;;;;13.89;nan;101076.72;5043194;28;20083;-48
2022/05/11 05:13:56;;;;;;;4.80;1.42;;;;;;;13.86;nan;101083.97;5027499;28;20034;-47
2022/05/11 05:16:22;;;;;;;6.03;1.40;;;;;;;13.64;nan;101048.72;5034849;28;20476;-52
2022/05/11 05:18:47;;;;;;;6.65;1.55;;;;;;;13.73;nan;101074.81;5034615;28;20040;-49
2022/05/11 05:21:13;;;;;;;7.43;1.77;;;;;;;13.60;nan;101073.59;5034547;28;20084;-57
2022/05/11 05:23:38;;;;;;;6.07;1.63;;;;;;;13.26;nan;101034.44;5025071;28;20086;-49
2022/05/11 05:26:03;;;;;;;8.38;1.73;;;;;;;13.51;nan;101077.50;5021793;28;20036;-47
2022/05/11 05:31:16;;;;;;;5.65;1.15;;;;;;;13.67;nan;101073.28;5034416;28;20548;-48
2022/05/11 05:33:41;;;;;;;4.22;1.20;;;;;;;13.43;nan;101008.16;5034331;28;20045;-46
2022/05/11 05:36:08;;;;;;;5.65;1.58;;;;;;;13.51;nan;101003.44;5034199;28;20038;-50
2022/05/11 05:38:36;;;;;;;6.28;1.63;;;;;;;14.01;nan;101067.41;5017107;28;20040;-51
2022/05/11 05:41:02;;;;;;;4.30;1.58;;;;;;;14.19;nan;101095.75;5033307;28;20044;-54
2022/05/11 05:43:27;;;;;;;4.60;1.25;;;;;;;14.00;nan;101010.13;5023217;28;20405;-52
2022/05/11 05:45:53;;;;;;;5.28;1.67;;;;;;;14.58;nan;101085.22;5034086;28;20030;-52
2022/05/11 05:48:20;;;;;;;8.23;1.50;;;;;;;14.42;nan;101018.84;5032364;28;20077;-50
2022/05/11 05:50:47;;;;;;;5.07;1.50;;;;;;;14.95;nan;101081.75;5034000;28;20034;-50
2022/05/11 05:53:14;;;;;;;4.40;1.38;;;;;;;14.67;nan;101028.31;5033767;28;20389;-47
2022/05/11 05:55:41;;;;;;;5.88;1.55;;;;;;;14.76;nan;101028.75;5024556;28;20048;-47
2022/05/11 05:58:06;;;;;;;11.02;1.98;;;;;;;15.17;nan;101101.03;5033583;28;20037;-50
2022/05/11 06:00:32;;;;;;;5.07;1.33;;;;;;;14.89;nan;101040.50;5048268;28;20042;-52
2022/05/11 06:02:58;;;;;;;5.80;1.63;;;;;;;14.87;nan;101031.75;5033559;28;20037;-48
2022/05/11 06:05:23;;;;;;;6.80;1.77;;;;;;;14.91;nan;101040.44;5028889;28;20042;-49
2022/05/11 06:07:48;;;;;;;4.75;1.30;;;;;;;15.18;nan;101089.47;5026731;28;20052;-50
2022/05/11 06:10:14;;;;;;;7.13;1.88;;;;;;;14.80;nan;101021.53;5029161;28;20099;-51
2022/05/11 06:12:39;;;;;;;7.60;1.30;;;;;;;14.68;nan;101019.44;5015851;28;20030;-49
2022/05/11 06:15:05;;;;;;;5.70;1.25;;;;;;;15.16;nan;101096.66;5032770;28;20037;-55
2022/05/11 06:17:32;;;;;;;7.70;1.60;;;;;;;14.76;nan;101042.00;5032879;28;20068;-47
2022/05/11 06:19:58;;;;;;;8.50;1.83;;;;;;;15.06;nan;101076.84;5033312;28;20064;-47
2022/05/11 06:22:25;;;;;;;4.93;1.30;;;;;;;15.15;nan;101095.78;5032708;28;20064;-47
2022/05/11 06:24:50;;;;;;;6.35;1.40;;;;;;;14.90;nan;101030.75;5027809;28;20237;-51
2022/05/11 06:27:18;;;;;;;6.35;1.63;;;;;;;15.43;nan;101095.34;5003578;28;20112;-50
2022/05/11 06:29:53;;;;;;;5.10;1.63;;;;;;;15.60;nan;101100.72;5032940;28;20494;-50
2022/05/11 06:32:19;;;;;;;11.20;1.90;;;;;;;15.76;nan;101103.50;5027649;28;20043;-48
2022/05/11 06:34:45;;;;;;;7.47;1.73;;;;;;;15.87;nan;101084.38;5032262;28;20042;-49
2022/05/11 06:37:10;;;;;;;7.10;1.80;;;;;;;16.01;nan;101088.06;5026631;28;20037;-47
2022/05/11 06:39:36;;;;;;;7.15;2.00;;;;;;;15.79;nan;101044.94;5032876;28;20048;-52
2022/05/11 06:42:06;;;;;;;3.03;1.27;;;;;;;15.78;nan;101035.28;5019634;28;20403;-55
2022/05/11 06:44:31;;;;;;;4.90;1.60;;;;;;;16.21;nan;101101.16;5032466;28;20371;-48
2022/05/11 06:46:57;;;;;;;3.88;1.90;;;;;;;15.98;nan;101045.72;5032257;28;20041;-49
2022/05/11 06:49:23;;;;;;;4.20;1.45;;;;;;;16.36;nan;101091.56;5032366;28;20033;-50
2022/05/11 06:51:48;;;;;;;2.53;1.15;;;;;;;16.69;nan;101110.22;5021494;28;20132;-48
2022/05/11 06:59:41;;;;;;;4.25;1.10;;;;;;;16.94;nan;101112.41;5032263;28;20049;-51
2022/05/11 07:02:07;;;;;;;6.97;1.27;;;;;;;16.88;nan;101105.63;5032745;28;20033;-50
2022/05/11 07:04:33;;;;;;;8.43;1.38;;;;;;;16.88;nan;101101.16;5031370;28;20034;-50
2022/05/11 07:06:59;;;;;;;3.72;1.25;;;;;;;16.89;nan;101104.69;5032927;28;20492;-49
2022/05/11 07:09:26;;;;;;;5.60;1.42;;;;;;;16.60;nan;101028.31;5031620;28;20030;-51
2022/05/11 07:14:36;;;;;;;4.90;1.42;;;;;;;17.09;nan;101075.19;5032304;28;20083;-56
2022/05/11 07:17:02;;;;;;;2.92;1.17;;;;;;;17.33;nan;101089.78;5032277;28;20451;-47
2022/05/11 07:19:28;;;;;;;4.38;0.93;;;;;;;17.44;nan;101079.41;5032225;28;20025;-48
2022/05/11 07:21:54;;;;;;;3.65;1.25;;;;;;;17.54;nan;101090.38;5032329;28;20060;-46
2022/05/11 07:24:19;;;;;;;5.35;1.10;;;;;;;17.46;nan;101089.94;5032212;28;20079;-49
2022/05/11 07:26:45;;;;;;;5.38;1.45;;;;;;;17.32;nan;101087.19;5032475;28;20487;-50
2022/05/11 07:29:11;;;;;;;6.20;1.60;;;;;;;17.67;nan;101080.75;5028923;28;20037;-48
2022/05/11 07:31:37;;;;;;;2.92;1.52;;;;;;;18.41;nan;101078.97;5032146;28;20033;-52
2022/05/11 07:34:03;;;;;;;6.45;1.42;;;;;;;19.27;nan;101083.31;5031922;28;20064;-50
2022/05/11 07:36:28;;;;;;;3.88;1.92;;;;;;;;;;5029283;28;20149;-51
2022/05/11 07:38:53;;;;;;;6.50;1.40;;;;;;;20.50;nan;101081.28;5031911;28;20105;-53
2022/05/11 07:41:19;;;;;;;4.45;1.52;;;;;;;;;;5008841;28;20033;-49
2022/05/11 07:43:44;;;;;;;4.87;1.60;;;;;;;20.95;nan;101097.72;5032144;28;20473;-56
2022/05/11 07:46:09;;;;;;;7.35;3.08;;;;;;;20.79;nan;101052.47;5034464;28;20064;-53
2022/05/11 07:48:35;;;;;;;9.20;2.17;;;;;;;21.20;nan;101101.25;5046663;28;20029;-54
2022/05/11 07:51:00;;;;;;;9.43;2.08;;;;;;;;;;5016864;28;20095;-47
2022/05/11 07:53:26;;;;;;;10.37;2.53;;;;;;;21.08;nan;101053.06;5031793;28;20099;-45
2022/05/11 07:59:52;;;;;;;7.55;1.90;;;;;;;21.66;nan;101103.22;5031575;28;20640;-48
2022/05/11 08:01:21;;;;;;;10.95;2.28;;;;;;;22.34;nan;101047.94;5019966;28;20041;-52
2022/05/11 08:03:46;;;;;;;8.45;2.22;;;;;;;22.58;nan;101050.53;5031661;28;20404;-46
2022/05/11 08:06:11;;;;;;;6.13;2.13;;;;;;;22.84;nan;101062.75;5031765;28;20408;-46
2022/05/11 08:08:37;;;;;;;7.95;2.40;;;;;;;23.04;nan;101101.44;5031854;28;20033;-48
2022/05/11 08:11:03;;;;;;;8.48;2.13;;;;;;;22.78;nan;101068.63;5027193;28;20045;-52
2022/05/11 08:13:30;;;;;;;7.35;2.50;;;;;;;22.35;nan;101054.16;5031702;28;20041;-47
2022/05/11 08:15:55;;;;;;;9.38;2.00;;;;;;;22.32;nan;101057.94;5031469;28;20489;-53
2022/05/11 08:18:21;;;;;;;10.07;2.88;;;;;;;22.59;nan;101097.00;5031174;28;20045;-49
2022/05/11 08:20:46;;;;;;;6.43;2.58;;;;;;;22.36;nan;101102.31;5031533;28;20030;-47
2022/05/11 08:23:12;;;;;;;9.43;2.83;;;;;;;22.49;nan;101118.31;5031446;28;20175;-49
2022/05/11 08:25:39;;;;;;;9.35;2.30;;;;;;;22.78;nan;101100.81;5031793;28;20052;-51
2022/05/11 08:28:11;;;;;;;8.20;3.03;;;;;;;22.52;nan;101118.06;5025518;28;20037;-50
2022/05/11 08:33:23;;;;;;;7.93;2.40;;;;;;;22.85;nan;101104.72;5031764;28;20488;-45
2022/05/11 08:35:51;;;;;;;12.35;3.03;;;;;;;22.83;nan;101106.66;5031744;28;20080;-50
2022/05/11 08:38:18;;;;;;;5.93;2.42;;;;;;;22.87;nan;101116.19;5014089;28;20033;-46
2022/05/11 08:40:51;;;;;;;11.30;3.22;;;;;;;23.26;nan;101112.13;5031644;28;20032;-51
2022/05/11 08:43:18;;;;;;;12.32;2.90;;;;;;;23.72;nan;101109.28;5035527;28;20021;-47
2022/05/11 08:46:00;;;;;;;8.32;3.30;;;;;;;23.89;nan;101078.28;5027160;28;20033;-46
2022/05/11 08:48:57;;;;;;;9.40;3.63;;;;;;;24.04;nan;101117.34;5031386;28;20500;-48
2022/05/11 08:51:39;;;;;;;10.18;3.42;;;;;;;23.73;nan;101084.09;4995230;28;20049;-47
2022/05/11 08:54:20;;;;;;;9.80;2.80;;;;;;;23.94;nan;101111.88;5022754;28;20068;-51
2022/05/11 08:56:48;;;;;;;10.13;3.42;;;;;;;24.28;nan;101101.00;5022994;28;20025;-50
2022/05/11 08:59:22;;;;;;;12.13;2.92;;;;;;;24.56;nan;101106.56;5017119;28;20037;-50
2022/05/11 09:01:59;;;;;;;13.18;3.20;;;;;;;24.03;nan;101065.38;5017493;28;20472;-48
2022/05/11 09:04:44;;;;;;;12.85;3.22;;;;;;;23.23;nan;101057.84;5034035;28;20082;-49
2022/05/11 09:07:09;;;;;;;12.85;3.70;;;;;;;22.81;nan;101116.69;5033756;28;20046;-49
2022/05/11 09:09:35;;;;;;;15.70;4.00;;;;;;;21.68;nan;101112.00;5034978;28;20104;-47
2022/05/11 09:12:01;;;;;;;10.07;3.60;;;;;;;21.19;nan;101085.31;5034848;28;20132;-48
2022/05/11 09:14:45;;;;;;;11.90;3.30;;;;;;;21.62;nan;101124.03;5015739;28;20026;-51
2022/05/11 09:17:28;;;;;;;16.08;4.40;;;;;;;22.25;nan;101114.81;5016618;28;20109;-45
2022/05/11 09:20:07;;;;;;;13.85;3.97;;;;;;;22.02;nan;101067.47;5019469;28;20022;-46
2022/05/11 09:22:37;;;;;;;15.32;4.82;;;;;;;22.39;nan;101111.94;5034395;28;20029;-47
2022/05/11 09:25:14;;;;;;;10.75;3.30;;;;;;;22.33;nan;101109.72;5034167;28;20480;-51
2022/05/11 09:27:39;;;;;;;16.27;3.60;;;;;;;22.08;nan;101070.53;5016066;28;20120;-46
2022/05/11 09:30:26;;;;;;;15.15;3.83;;;;;;;22.43;nan;101084.78;5034520;28;20112;-49
2022/05/11 09:33:11;;;;;;;14.98;3.20;;;;;;;22.88;nan;101134.00;5015002;28;20480;-49
2022/05/11 09:35:37;;;;;;;11.73;4.50;;;;;;;23.53;nan;101118.00;5022036;28;20033;-47
2022/05/11 09:38:19;;;;;;;11.65;3.55;;;;;;;24.18;nan;101116.19;5032971;28;20065;-44
2022/05/11 09:40:54;;;;;;;17.10;3.90;;;;;;;24.40;nan;101130.38;5034346;28;20117;-53
2022/05/11 09:43:55;;;;;;;12.40;3.42;;;;;;;24.43;nan;101116.66;5017625;28;20068;-47
2022/05/11 09:46:26;;;;;;;15.10;3.85;;;;;;;24.86;nan;101121.94;4956751;28;20039;-48
2022/05/11 09:48:58;;;;;;;9.77;3.13;;;;;;;24.97;nan;101123.66;5023837;28;20386;-50
2022/05/11 09:51:26;;;;;;;10.95;3.28;;;;;;;25.31;nan;101114.28;5033945;28;20048;-47
2022/05/11 09:53:54;;;;;;;11.25;2.80;;;;;;;24.92;nan;101064.84;5034302;28;20427;-48
2022/05/11 09:56:34;;;;;;;8.57;2.80;;;;;;;25.11;nan;101064.88;5016442;28;20041;-47
2022/05/11 09:59:29;;;;;;;12.15;3.08;;;;;;;25.36;nan;101120.13;5016737;28;20062;-50
2022/05/11 10:02:19;;;;;;;9.40;2.97;;;;;;;25.61;nan;101116.97;5032456;28;20037;-46
2022/05/11 10:04:51;;;;;;;10.70;3.17;;;;;;;25.04;nan;101100.59;5001220;28;20029;-49
2022/05/11 10:07:19;;;;;;;7.88;2.85;;;;;;;25.22;nan;101098.13;5022529;28;20472;-46
2022/05/11 10:09:51;;;;;;;8.32;2.97;;;;;;;25.25;nan;101114.00;5015260;28;20091;-51
2022/05/11 10:12:20;;;;;;;6.28;2.38;;;;;;;25.64;nan;101115.81;5032307;28;20036;-47
2022/05/11 10:23:22;;;;;;;7.15;2.45;;;;;;;27.02;nan;101111.75;5033460;28;20319;-50
2022/05/11 10:25:55;;;;;;;5.85;2.05;;;;;;;27.07;nan;101105.88;5030898;28;20036;-46
2022/05/11 10:28:29;;;;;;;7.00;2.45;;;;;;;27.27;nan;101116.44;5023878;28;20365;-48
2022/05/11 10:31:26;;;;;;;7.18;2.08;;;;;;;27.36;nan;101104.72;4996982;28;20038;-48
2022/05/11 10:33:56;;;;;;;5.28;1.95;;;;;;;27.07;nan;101108.56;5025202;28;20026;-48
2022/05/11 10:36:38;;;;;;;9.48;2.42;;;;;;;26.93;nan;101107.22;5033204;28;20045;-47
2022/05/11 10:39:26;;;;;;;6.53;2.25;;;;;;;27.03;nan;101105.31;5015436;28;20037;-47
2022/05/11 10:41:57;;;;;;;5.00;2.00;;;;;;;27.14;nan;101083.53;5033529;28;20120;-49
2022/05/11 10:44:34;;;;;;;7.15;2.42;;;;;;;27.11;nan;101116.25;5032291;28;20030;-47
2022/05/11 10:47:32;;;;;;;6.65;1.80;;;;;;;27.23;nan;101116.91;5033320;28;20040;-46
2022/05/11 10:50:15;;;;;;;6.20;2.33;;;;;;;27.37;nan;101105.59;5015938;28;20064;-50
2022/05/11 10:52:56;;;;;;;3.90;2.17;;;;;;;27.35;nan;101051.66;5030816;28;20393;-50
2022/05/11 10:55:25;;;;;;;;;;;;;;;28.06;nan;101092.31;5032632;28;20072;-50
2022/05/11 10:58:05;;;;;;;7.05;1.67;;;;;;;27.93;nan;101103.50;5032669;28;20296;-53
2022/05/11 11:00:41;;;;;;;6.07;2.47;;;;;;;27.61;nan;101053.66;5032868;28;20056;-47
2022/05/11 11:03:40;;;;;;;7.30;1.73;;;;;;;27.92;nan;101109.94;5031185;28;20040;-47
2022/05/11 11:09:09;;;;;;;4.40;1.80;;;;;;;28.41;nan;101111.22;5032836;28;20087;-47
2022/05/11 11:12:05;;;;;;;5.53;1.90;;;;;;;28.33;nan;101119.28;5026330;28;20021;-48
2022/05/11 11:14:36;;;;;;;4.60;1.48;;;;;;;28.37;nan;101125.25;5032532;28;20030;-49
2022/05/11 11:17:06;;;;;;;4.60;1.60;;;;;;;27.84;nan;101106.28;5032394;28;20073;-48
2022/05/11 11:19:32;;;;;;;5.80;1.40;;;;;;;28.04;nan;101113.28;5032153;28;20030;-47
2022/05/11 11:22:00;;;;;;;6.20;1.33;;;;;;;28.29;nan;101108.91;5031022;28;20048;-49
2022/05/11 11:24:27;;;;;;;10.13;1.70;;;;;;;27.65;nan;101066.72;5023054;28;20037;-49
2022/05/11 11:26:59;;;;;;;3.40;1.27;;;;;;;28.08;nan;101103.81;5032866;28;20041;-50
2022/05/11 11:29:27;;;;;;;5.93;1.63;;;;;;;27.55;nan;101076.75;5031482;28;20041;-51
2022/05/11 11:32:06;;;;;;;8.43;1.80;;;;;;;27.74;nan;101097.38;5031327;28;20056;-48
2022/05/11 11:34:35;;;;;;;8.45;1.95;;;;;;;27.79;nan;101098.63;5032757;28;20032;-48
2022/05/11 11:37:27;;;;;;;3.78;1.30;;;;;;;28.08;nan;101081.34;5032332;28;20041;-48
2022/05/11 11:39:59;;;;;;;5.20;1.08;;;;;;;28.22;nan;101032.91;5032510;28;20029;-49
2022/05/11 11:42:34;;;;;;;5.88;1.92;;;;;;;28.63;nan;101049.41;5014539;28;20036;-48
2022/05/11 11:45:00;;;;;;;4.13;1.40;;;;;;;28.72;nan;101065.56;5032232;28;20025;-53
2022/05/11 11:47:26;;;;;;;5.32;1.95;;;;;;;28.86;nan;101061.41;5031346;28;20064;-48
2022/05/11 11:49:53;;;;;;;4.10;1.80;;;;;;;28.88;nan;101062.94;5032516;28;20069;-50
2022/05/11 11:52:35;;;;;;;5.40;1.50;;;;;;;28.94;nan;101072.28;5047526;28;20554;-45
2022/05/11 11:55:01;;;;;;;4.68;1.00;;;;;;;28.89;nan;101066.53;5031014;28;20068;-48
2022/05/11 11:57:29;;;;;;;6.45;1.73;;;;;;;28.99;nan;101048.25;5032226;28;20440;-47
2022/05/11 11:59:58;;;;;;;3.65;1.88;;;;;;;28.66;nan;101062.66;5014648;28;20096;-46
2022/05/11 12:02:28;;;;;;;6.20;2.00;;;;;;;28.77;nan;101062.38;5032135;28;20465;-48
2022/05/11 12:05:23;;;;;;;7.30;2.03;;;;;;;29.00;nan;101055.38;5032113;28;20029;-47
2022/05/11 12:16:29;;;;;;;8.38;2.70;;;;;;;28.91;nan;101073.47;5029326;28;20044;-48
2022/05/11 12:19:08;;;;;;;8.00;2.72;;;;;;;28.40;nan;101066.19;5027832;28;20434;-50
2022/05/11 12:21:36;;;;;;;8.55;2.88;;;;;;;28.22;nan;101060.00;5032043;28;20387;-51
2022/05/11 12:24:04;;;;;;;10.10;3.13;;;;;;;28.62;nan;101034.16;5031954;28;20040;-48
2022/05/11 12:26:35;;;;;;;9.00;3.00;;;;;;;28.64;nan;101062.81;5031958;28;20534;-51
2022/05/11 12:31:59;;;;;;;8.50;3.28;;;;;;;28.27;nan;101021.59;5032120;28;20091;-46
2022/05/11 12:34:27;;;;;;;10.52;3.40;;;;;;;28.42;nan;101044.38;5035786;28;20292;-48
2022/05/11 12:36:53;;;;;;;8.55;3.00;;;;;;;27.96;nan;100942.72;5035812;28;20104;-50